Time;durP1;ratioP1;P1;durP2;ratioP2;P2;SDS_P1;SDS_P2;PMS_P1;PMS_P2;Temp;Humidity;BMP_temperature;BMP_pressure;BME280_temperature;BME280_humidity;BME280_pressure;Samples;Min_cycle;Max_cycle;Signal;HPM_P1;HPM_P2
2021/06/05 00:01:52;;;;;;;7.45;6.75;;;18.70;86.20;;;;;;5040262;28;20017;-73
2021/06/05 00:04:20;;;;;;;9.50;7.30;;;18.60;86.50;;;;;;5040251;28;20420;-73
2021/06/05 00:06:49;;;;;;;9.77;6.07;;;18.60;86.50;;;;;;5040092;28;20041;-73
2021/06/05 00:09:15;;;;;;;9.60;5.90;;;18.60;86.00;;;;;;5040064;28;20057;-73
2021/06/05 00:11:42;;;;;;;6.20;5.60;;;18.50;85.30;;;;;;5039699;28;20021;-73
2021/06/05 00:14:10;;;;;;;7.38;6.55;;;18.60;85.40;;;;;;5039620;28;20031;-73
2021/06/05 00:16:48;;;;;;;6.55;5.85;;;18.60;86.30;;;;;;5039575;28;20030;-73
2021/06/05 00:19:16;;;;;;;6.07;5.53;;;18.50;85.20;;;;;;5039987;28;20291;-73
2021/06/05 00:21:43;;;;;;;5.93;5.32;;;18.60;85.40;;;;;;5039534;28;20341;-72
2021/06/05 00:24:09;;;;;;;5.95;5.45;;;18.60;85.10;;;;;;5039881;28;20056;-73
2021/06/05 00:26:35;;;;;;;6.55;5.95;;;18.60;84.90;;;;;;5039398;28;20035;-73
2021/06/05 00:29:02;;;;;;;6.55;5.82;;;18.70;84.30;;;;;;5039672;28;20033;-73
2021/06/05 00:31:28;;;;;;;8.40;6.68;;;18.70;84.10;;;;;;5039687;28;20117;-73
2021/06/05 00:33:55;;;;;;;8.38;6.38;;;18.80;83.80;;;;;;5039647;28;20030;-73
2021/06/05 00:36:20;;;;;;;6.57;5.65;;;18.90;84.10;;;;;;5039263;28;20029;-73
2021/06/05 00:38:46;;;;;;;6.22;5.60;;;18.90;83.40;;;;;;5039550;28;20033;-73
2021/06/05 00:41:16;;;;;;;6.00;5.40;;;19.00;84.00;;;;;;5038879;28;20021;-73
2021/06/05 00:43:47;;;;;;;8.70;6.03;;;19.10;84.10;;;;;;5039189;28;20107;-73
2021/06/05 00:46:15;;;;;;;5.95;5.15;;;19.10;84.00;;;;;;5039099;28;20552;-73
2021/06/05 00:48:40;;;;;;;7.47;5.32;;;19.00;83.50;;;;;;5039048;28;20022;-73
2021/06/05 00:51:07;;;;;;;7.43;5.28;;;19.00;82.10;;;;;;5039059;28;19916;-73
2021/06/05 00:53:34;;;;;;;5.65;5.00;;;19.00;83.50;;;;;;5039015;28;20025;-73
2021/06/05 00:56:02;;;;;;;5.85;4.80;;;19.10;84.60;;;;;;5038869;28;20406;-73
2021/06/05 00:58:29;;;;;;;5.32;4.82;;;19.10;85.80;;;;;;5039102;28;20040;-73
2021/06/05 01:01:14;;;;;;;8.23;5.40;;;19.00;85.40;;;;;;5038855;28;20042;-73
2021/06/05 01:03:40;;;;;;;6.60;5.85;;;19.00;86.80;;;;;;5039099;28;20030;-73
2021/06/05 01:06:36;;;;;;;7.05;6.35;;;18.80;87.00;;;;;;5038697;28;20344;-73
2021/06/05 01:09:16;;;;;;;7.75;6.10;;;18.70;84.60;;;;;;5038307;28;20376;-73
2021/06/05 01:11:50;;;;;;;8.75;7.05;;;18.70;83.30;;;;;;5038653;28;20053;-73
2021/06/05 01:14:22;;;;;;;8.60;6.18;;;18.80;83.30;;;;;;5038766;28;20048;-73
2021/06/05 01:16:49;;;;;;;6.60;6.00;;;18.90;82.10;;;;;;5038837;28;20029;-73
2021/06/05 01:19:44;;;;;;;9.05;6.35;;;18.90;81.70;;;;;;5038491;28;20044;-73
2021/06/05 01:22:41;;;;;;;6.55;5.95;;;19.00;81.60;;;;;;5053799;28;20046;-73
2021/06/05 01:25:30;;;;;;;7.30;5.85;;;19.00;80.50;;;;;;5029928;28;20053;-73
2021/06/05 01:28:08;;;;;;;7.53;5.63;;;19.10;80.70;;;;;;5038344;28;20025;-73
2021/06/05 01:30:46;;;;;;;6.68;5.68;;;19.10;80.60;;;;;;5038527;28;20030;-73
2021/06/05 01:33:14;;;;;;;6.93;6.22;;;19.20;80.80;;;;;;5038600;28;20025;-73
2021/06/05 01:35:41;;;;;;;8.98;6.38;;;19.20;80.50;;;;;;5038446;28;20036;-73
2021/06/05 01:38:09;;;;;;;6.95;6.25;;;19.20;79.90;;;;;;5038131;28;20033;-73
2021/06/05 01:40:35;;;;;;;9.25;7.32;;;19.20;80.50;;;;;;5038365;28;20033;-73
2021/06/05 01:43:03;;;;;;;12.35;6.75;;;19.20;80.80;;;;;;5038431;28;20140;-73
2021/06/05 01:45:34;;;;;;;7.18;5.45;;;19.10;80.90;;;;;;5037936;28;20037;-73
2021/06/05 01:48:00;;;;;;;6.10;5.50;;;19.20;81.20;;;;;;5037985;28;20036;-73
2021/06/05 01:50:32;;;;;;;6.00;5.40;;;19.10;81.20;;;;;;5038105;28;20369;-73
2021/06/05 01:53:03;;;;;;;8.07;5.35;;;19.00;81.10;;;;;;5037230;28;20104;-73
2021/06/05 01:55:37;;;;;;;6.18;5.57;;;18.90;82.40;;;;;;5037782;28;20029;-73
2021/06/05 01:58:12;;;;;;;6.35;5.57;;;18.80;82.90;;;;;;5038064;28;20025;-73
2021/06/05 02:00:40;;;;;;;;;;;18.60;84.10;;;;;;5038175;28;20036;-73
2021/06/05 02:03:06;;;;;;;8.02;5.18;;;18.50;85.70;;;;;;5038034;28;19933;-73
2021/06/05 02:05:32;;;;;;;7.13;6.43;;;18.40;85.50;;;;;;5037866;28;20029;-73
2021/06/05 02:07:58;;;;;;;7.07;5.82;;;18.30;85.70;;;;;;5037855;28;20057;-72
2021/06/05 02:10:26;;;;;;;6.35;5.55;;;18.20;86.00;;;;;;5037495;28;20371;-73
2021/06/05 02:12:54;;;;;;;9.32;5.25;;;18.20;86.00;;;;;;5037453;28;20022;-72
2021/06/05 02:15:31;;;;;;;8.10;5.35;;;18.10;86.20;;;;;;5037814;28;20018;-73
2021/06/05 02:17:59;;;;;;;6.07;5.45;;;18.10;85.40;;;;;;5037383;28;20448;-73
2021/06/05 02:20:40;;;;;;;7.47;5.78;;;18.00;85.80;;;;;;5037621;28;20298;-73
2021/06/05 02:23:14;;;;;;;10.35;5.55;;;18.00;86.30;;;;;;5037623;28;20048;-73
2021/06/05 02:25:40;;;;;;;6.10;5.50;;;18.00;86.20;;;;;;5037158;28;20037;-73
2021/06/05 02:28:06;;;;;;;7.18;5.50;;;18.00;86.70;;;;;;5037167;28;20037;-73
2021/06/05 02:30:33;;;;;;;6.78;5.68;;;18.00;84.70;;;;;;5037434;28;20029;-73
2021/06/05 02:33:01;;;;;;;6.43;5.32;;;18.10;84.70;;;;;;5037198;28;20112;-73
2021/06/05 02:35:37;;;;;;;6.05;5.45;;;18.20;83.90;;;;;;5037007;28;20017;-73
2021/06/05 02:38:04;;;;;;;6.95;5.18;;;18.30;83.00;;;;;;5037365;28;20072;-73
2021/06/05 02:40:31;;;;;;;6.30;5.57;;;18.30;83.00;;;;;;5036969;28;20057;-73
2021/06/05 02:43:01;;;;;;;7.78;6.05;;;18.40;82.60;;;;;;5036927;28;20025;-73
2021/06/05 02:45:51;;;;;;;11.63;5.70;;;18.50;82.40;;;;;;5036922;28;20034;-73
2021/06/05 02:48:16;;;;;;;5.82;5.20;;;18.60;82.30;;;;;;5036493;28;20037;-73
2021/06/05 02:50:50;;;;;;;10.05;5.30;;;18.50;81.90;;;;;;5036783;28;20025;-73
2021/06/05 02:53:17;;;;;;;6.30;5.32;;;18.50;82.70;;;;;;5037138;28;20026;-72
2021/06/05 02:55:43;;;;;;;5.80;4.35;;;18.50;82.30;;;;;;5037050;28;20052;-72
2021/06/05 02:58:10;;;;;;;5.28;4.75;;;18.50;83.40;;;;;;5036771;28;20037;-73
2021/06/05 03:00:42;;;;;;;5.47;4.30;;;18.40;82.90;;;;;;5037018;28;20094;-72
2021/06/05 03:03:11;;;;;;;5.28;4.78;;;18.30;84.00;;;;;;5036707;28;20029;-72
2021/06/05 03:05:37;;;;;;;7.45;4.90;;;18.30;85.00;;;;;;5036578;28;20112;-73
2021/06/05 03:08:06;;;;;;;4.60;4.00;;;18.20;85.20;;;;;;5036620;28;20044;-73
2021/06/05 03:10:33;;;;;;;5.20;4.60;;;18.10;85.50;;;;;;5036858;28;20021;-73
2021/06/05 03:13:00;;;;;;;6.50;5.38;;;18.00;86.10;;;;;;5036629;28;20056;-72
2021/06/05 03:15:27;;;;;;;6.22;5.63;;;17.90;86.50;;;;;;5036939;28;20091;-73
2021/06/05 03:17:54;;;;;;;5.93;5.20;;;17.80;86.30;;;;;;5036532;28;20036;-73
2021/06/05 03:20:23;;;;;;;5.32;4.82;;;17.70;87.30;;;;;;5036834;28;20091;-73
2021/06/05 03:22:49;;;;;;;6.47;5.47;;;17.50;87.90;;;;;;5036276;28;20136;-73
2021/06/05 03:25:17;;;;;;;6.75;5.97;;;17.40;88.10;;;;;;5036442;28;20025;-72
2021/06/05 03:27:43;;;;;;;7.72;5.65;;;17.30;88.70;;;;;;5036744;28;20040;-73
2021/06/05 03:30:11;;;;;;;8.32;5.53;;;17.30;88.90;;;;;;5036669;28;20059;-73
2021/06/05 03:32:37;;;;;;;7.97;5.72;;;17.30;88.50;;;;;;5036338;28;20025;-73
2021/06/05 03:35:04;;;;;;;6.70;5.20;;;17.30;89.40;;;;;;5036360;28;20021;-72
2021/06/05 03:37:30;;;;;;;5.97;5.47;;;17.20;89.30;;;;;;5036372;28;20394;-72
2021/06/05 03:39:55;;;;;;;10.13;5.70;;;17.20;88.40;;;;;;5036653;28;20025;-73
2021/06/05 03:42:21;;;;;;;6.45;5.85;;;17.30;89.30;;;;;;5036361;28;20033;-72
2021/06/05 03:44:47;;;;;;;7.28;5.30;;;17.20;89.80;;;;;;5036462;28;20117;-72
2021/06/05 03:47:13;;;;;;;7.30;5.28;;;17.20;90.20;;;;;;5036628;28;20055;-72
2021/06/05 03:49:38;;;;;;;14.75;6.30;;;17.20;89.40;;;;;;5036220;28;20428;-73
2021/06/05 03:52:04;;;;;;;6.45;5.68;;;17.10;87.70;;;;;;5036543;28;20087;-72
2021/06/05 03:54:30;;;;;;;5.32;4.70;;;17.20;88.70;;;;;;5036222;28;20029;-72
2021/06/05 03:56:56;;;;;;;5.40;4.90;;;17.20;88.40;;;;;;5036510;28;20028;-72
2021/06/05 03:59:22;;;;;;;9.55;5.53;;;17.20;88.40;;;;;;5036476;28;20418;-72
2021/06/05 04:01:48;;;;;;;7.30;5.03;;;17.20;88.30;;;;;;5036147;28;20068;-72
2021/06/05 04:04:14;;;;;;;6.65;4.60;;;17.10;88.90;;;;;;5036218;28;20049;-73
2021/06/05 04:06:39;;;;;;;5.90;4.60;;;17.10;88.20;;;;;;5036045;28;20030;-72
2021/06/05 04:09:05;;;;;;;5.53;5.00;;;17.10;89.00;;;;;;5036028;28;20079;-72
2021/06/05 04:11:33;;;;;;;8.75;4.47;;;17.20;89.40;;;;;;5036039;28;20033;-72
2021/06/05 04:14:01;;;;;;;6.93;4.82;;;17.20;89.10;;;;;;5036284;28;20025;-72
2021/06/05 04:16:27;;;;;;;4.38;3.97;;;17.30;90.00;;;;;;5037301;28;20029;-72
2021/06/05 04:18:53;;;;;;;7.60;5.47;;;17.30;89.10;;;;;;5039607;28;20032;-72
2021/06/05 04:21:21;;;;;;;5.43;4.65;;;17.30;89.50;;;;;;5039665;28;20054;-72
2021/06/05 04:23:47;;;;;;;5.20;4.65;;;17.20;89.00;;;;;;5039521;28;20480;-72
2021/06/05 04:26:14;;;;;;;5.82;5.15;;;17.10;88.80;;;;;;5039505;28;20075;-72
2021/06/05 04:28:40;;;;;;;6.03;4.97;;;17.10;87.50;;;;;;5039521;28;20029;-72
2021/06/05 04:31:07;;;;;;;9.65;5.88;;;17.30;88.20;;;;;;5039294;28;20033;-72
2021/06/05 04:33:34;;;;;;;5.22;4.55;;;17.50;87.90;;;;;;5039530;28;20414;-72
2021/06/05 04:36:06;;;;;;;5.70;5.10;;;17.60;87.40;;;;;;5039324;28;20480;-72
2021/06/05 04:38:31;;;;;;;8.50;4.78;;;17.70;84.80;;;;;;5039609;28;20025;-72
2021/06/05 04:40:57;;;;;;;7.97;5.18;;;17.90;83.30;;;;;;5039513;28;20029;-72
2021/06/05 04:43:23;;;;;;;6.15;4.53;;;18.10;82.50;;;;;;5039557;28;20100;-72
2021/06/05 04:45:50;;;;;;;6.68;5.72;;;18.20;81.70;;;;;;5039569;28;20112;-72
2021/06/05 04:48:16;;;;;;;7.43;4.10;;;18.30;82.30;;;;;;5039395;28;20041;-72
2021/06/05 04:50:44;;;;;;;4.85;4.38;;;18.30;83.50;;;;;;5038989;28;20052;-72
2021/06/05 04:53:09;;;;;;;5.60;4.20;;;18.40;83.00;;;;;;5039314;28;20018;-72
2021/06/05 04:55:36;;;;;;;7.95;4.72;;;18.50;84.20;;;;;;5038910;28;20025;-72
2021/06/05 04:58:03;;;;;;;6.82;3.97;;;18.50;85.90;;;;;;5039207;28;20049;-72
2021/06/05 05:00:33;;;;;;;6.20;3.63;;;18.60;85.90;;;;;;5038879;28;20072;-72
2021/06/05 05:02:59;;;;;;;6.13;4.80;;;18.70;85.40;;;;;;5039178;28;20029;-72
2021/06/05 05:05:25;;;;;;;6.20;4.57;;;18.70;84.50;;;;;;5038730;28;20430;-72
2021/06/05 05:07:51;;;;;;;8.50;5.00;;;18.60;83.50;;;;;;5039013;28;20026;-72
2021/06/05 05:10:20;;;;;;;4.78;4.30;;;18.70;83.30;;;;;;5038931;28;20098;-72
2021/06/05 05:12:46;;;;;;;4.65;4.20;;;18.80;83.10;;;;;;5038613;28;20022;-72
2021/06/05 05:15:12;;;;;;;4.88;4.28;;;19.00;82.40;;;;;;5038634;28;20025;-73
2021/06/05 05:17:37;;;;;;;4.85;4.45;;;19.20;81.50;;;;;;5038847;28;20045;-73
2021/06/05 05:20:07;;;;;;;4.30;3.90;;;19.30;80.60;;;;;;5038898;28;20033;-73
2021/06/05 05:22:33;;;;;;;8.20;4.35;;;19.50;80.60;;;;;;5038197;28;20056;-72
2021/06/05 05:24:59;;;;;;;5.53;3.88;;;19.60;79.30;;;;;;5038682;28;20022;-73
2021/06/05 05:27:25;;;;;;;7.78;4.45;;;19.70;81.10;;;;;;5038039;28;20029;-73
2021/06/05 05:29:50;;;;;;;6.85;3.80;;;19.90;79.50;;;;;;5037861;28;20103;-73
2021/06/05 05:32:16;;;;;;;4.45;3.63;;;20.10;78.60;;;;;;5038595;28;20071;-73
2021/06/05 05:34:42;;;;;;;6.03;4.03;;;20.20;78.30;;;;;;5038251;28;20477;-72
2021/06/05 05:37:07;;;;;;;7.68;4.32;;;20.30;77.10;;;;;;5038246;28;20104;-73
2021/06/05 05:39:33;;;;;;;4.90;4.38;;;20.40;76.70;;;;;;5038508;28;20027;-73
2021/06/05 05:41:59;;;;;;;6.22;3.55;;;20.30;76.80;;;;;;5038395;28;20025;-73
2021/06/05 05:44:25;;;;;;;5.07;3.75;;;20.30;76.90;;;;;;5038435;28;20044;-73
2021/06/05 05:46:50;;;;;;;6.38;3.30;;;20.40;79.80;;;;;;5037963;28;20413;-73
2021/06/05 05:49:17;;;;;;;6.85;3.60;;;20.60;79.00;;;;;;5038228;28;20113;-73
2021/06/05 05:51:43;;;;;;;5.93;3.28;;;20.80;79.30;;;;;;5038223;28;20116;-73
2021/06/05 05:54:09;;;;;;;3.60;3.30;;;21.00;79.10;;;;;;5037920;28;20104;-73
2021/06/05 05:56:36;;;;;;;6.20;3.70;;;21.20;77.90;;;;;;5037719;28;20021;-73
2021/06/05 05:59:03;;;;;;;9.20;3.33;;;21.60;76.40;;;;;;5037759;28;20028;-73
2021/06/05 06:01:29;;;;;;;4.95;3.42;;;22.20;75.60;;;;;;5037669;28;20021;-73
2021/06/05 06:03:57;;;;;;;3.92;3.05;;;22.70;72.60;;;;;;5037709;28;20037;-73
2021/06/05 06:06:26;;;;;;;6.13;2.53;;;23.00;71.20;;;;;;5037585;28;20413;-73
2021/06/05 06:08:53;;;;;;;5.65;2.63;;;23.00;70.90;;;;;;5037929;28;20035;-73
2021/06/05 06:11:20;;;;;;;4.13;2.90;;;23.10;72.10;;;;;;5037778;28;20034;-73
2021/06/05 06:13:45;;;;;;;4.57;2.33;;;23.20;72.20;;;;;;5037703;28;20326;-73
2021/06/05 06:16:14;;;;;;;5.80;2.80;;;23.60;71.10;;;;;;5037384;28;20035;-73
2021/06/05 06:18:41;;;;;;;5.80;2.42;;;24.10;71.70;;;;;;5037729;28;20071;-73
2021/06/05 06:21:09;;;;;;;5.28;3.13;;;24.60;70.60;;;;;;5037443;28;20111;-74
2021/06/05 06:23:36;;;;;;;5.55;2.60;;;24.80;68.20;;;;;;5037606;28;20099;-73
2021/06/05 06:26:09;;;;;;;5.22;2.85;;;25.00;68.10;;;;;;5037541;28;20113;-73
2021/06/05 06:28:38;;;;;;;6.15;2.92;;;25.30;65.90;;;;;;5037527;28;20025;-73
2021/06/05 06:31:05;;;;;;;6.20;3.20;;;25.50;66.40;;;;;;5036996;28;20029;-73
2021/06/05 06:33:31;;;;;;;4.40;2.80;;;25.50;65.30;;;;;;5037206;28;20024;-73
2021/06/05 06:35:57;;;;;;;5.72;3.40;;;25.40;65.60;;;;;;5037325;28;20113;-73
2021/06/05 06:38:31;;;;;;;6.63;2.80;;;25.50;64.60;;;;;;5037058;28;20432;-73
2021/06/05 06:40:57;;;;;;;3.17;2.88;;;25.70;63.90;;;;;;5037164;28;20030;-73
2021/06/05 06:43:27;;;;;;;4.70;2.45;;;25.70;64.00;;;;;;5037026;28;20025;-73
2021/06/05 06:45:53;;;;;;;6.03;2.80;;;25.80;63.40;;;;;;5036837;28;20033;-73
2021/06/05 06:48:20;;;;;;;6.57;3.63;;;26.10;62.90;;;;;;5036894;28;20552;-73
2021/06/05 06:50:48;;;;;;;4.82;2.60;;;26.30;62.60;;;;;;5037100;28;20108;-73
2021/06/05 06:53:14;;;;;;;6.80;2.97;;;26.50;63.20;;;;;;5036925;28;20083;-73
2021/06/05 06:55:40;;;;;;;4.00;2.75;;;26.70;64.40;;;;;;5037054;28;20067;-73
2021/06/05 06:58:06;;;;;;;5.90;3.13;;;26.60;64.50;;;;;;5036888;28;20025;-73
2021/06/05 07:00:35;;;;;;;3.33;2.97;;;26.80;63.80;;;;;;5037075;28;20365;-73
2021/06/05 07:03:01;;;;;;;3.00;2.05;;;27.00;62.40;;;;;;5036766;28;20456;-73
2021/06/05 07:05:27;;;;;;;5.78;2.28;;;27.10;63.20;;;;;;5036965;28;20025;-73
2021/06/05 07:08:10;;;;;;;7.68;2.88;;;27.40;63.50;;;;;;5036967;28;20022;-74
2021/06/05 07:10:37;;;;;;;2.63;2.10;;;27.20;61.50;;;;;;5036874;28;20299;-73
2021/06/05 07:13:04;;;;;;;4.13;2.55;;;27.00;63.30;;;;;;5036972;28;20017;-73
2021/06/05 07:15:30;;;;;;;3.20;2.60;;;26.90;63.40;;;;;;5036974;28;20088;-73
2021/06/05 07:17:56;;;;;;;3.90;2.60;;;27.00;63.40;;;;;;5036871;28;20413;-74
2021/06/05 07:20:22;;;;;;;3.70;2.33;;;27.20;62.90;;;;;;5036863;28;20406;-74
2021/06/05 07:22:47;;;;;;;8.55;3.08;;;27.30;61.70;;;;;;5036373;28;20056;-73
2021/06/05 07:25:13;;;;;;;4.32;2.17;;;27.50;60.90;;;;;;5036780;28;20432;-73
2021/06/05 07:27:39;;;;;;;3.58;2.83;;;27.60;61.00;;;;;;5036824;28;20034;-74
2021/06/05 07:30:06;;;;;;;4.10;2.97;;;27.70;60.40;;;;;;5036694;28;20025;-74
2021/06/05 07:32:32;;;;;;;4.35;2.78;;;27.80;58.60;;;;;;5036718;28;20083;-74
2021/06/05 07:34:58;;;;;;;3.30;2.60;;;27.80;59.50;;;;;;5036444;28;20413;-73
2021/06/05 07:37:24;;;;;;;3.30;2.17;;;27.90;61.30;;;;;;5036738;28;20025;-74
2021/06/05 07:39:50;;;;;;;3.25;2.70;;;27.80;62.40;;;;;;5036689;28;20025;-74
2021/06/05 07:42:16;;;;;;;5.75;2.55;;;28.00;58.30;;;;;;5036667;28;20324;-74
2021/06/05 07:44:42;;;;;;;2.60;2.40;;;28.00;61.50;;;;;;5036660;28;20041;-74
2021/06/05 07:47:08;;;;;;;3.80;2.30;;;28.30;60.50;;;;;;5036296;28;20357;-74
2021/06/05 07:49:37;;;;;;;5.38;2.78;;;28.10;59.30;;;;;;5036247;28;20025;-74
2021/06/05 07:52:07;;;;;;;4.50;2.70;;;28.40;57.00;;;;;;5038662;28;20030;-74
2021/06/05 07:54:32;;;;;;;2.97;2.28;;;28.70;59.20;;;;;;5040109;28;20036;-74
2021/06/05 07:56:58;;;;;;;4.38;2.28;;;28.70;58.70;;;;;;5040044;28;20018;-74
2021/06/05 07:59:26;;;;;;;6.85;2.83;;;28.80;58.00;;;;;;5040341;28;20033;-74
2021/06/05 08:01:53;;;;;;;6.05;2.55;;;28.50;58.00;;;;;;5040271;28;20029;-74
2021/06/05 08:04:19;;;;;;;4.03;2.58;;;28.70;58.10;;;;;;5039932;28;20025;-74
2021/06/05 08:06:46;;;;;;;6.05;2.58;;;28.90;59.50;;;;;;5039807;28;20040;-74
2021/06/05 08:09:11;;;;;;;7.15;3.00;;;28.50;58.70;;;;;;5039704;28;20033;-73
2021/06/05 08:11:38;;;;;;;6.80;2.90;;;28.30;59.00;;;;;;5040083;28;20025;-73
2021/06/05 08:14:05;;;;;;;2.85;2.55;;;28.40;59.80;;;;;;5039961;28;20028;-74
2021/06/05 08:16:36;;;;;;;5.35;2.80;;;28.50;60.70;;;;;;5039626;28;20444;-73
2021/06/05 08:19:06;;;;;;;7.45;2.72;;;28.90;57.50;;;;;;5039976;28;20083;-73
2021/06/05 08:21:32;;;;;;;5.28;3.05;;;28.70;59.70;;;;;;5039683;28;20337;-72
2021/06/05 08:23:58;;;;;;;8.60;2.47;;;28.80;58.40;;;;;;5039556;28;20022;-72
2021/06/05 08:26:24;;;;;;;4.38;2.70;;;28.80;60.70;;;;;;5039751;28;20100;-73
2021/06/05 08:28:50;;;;;;;5.43;2.83;;;28.90;58.50;;;;;;5039517;28;20028;-73
2021/06/05 08:31:18;;;;;;;5.13;3.13;;;29.00;58.80;;;;;;5039648;28;20030;-73
2021/06/05 08:33:44;;;;;;;4.68;3.20;;;29.10;57.70;;;;;;5040251;28;20060;-72
2021/06/05 08:36:12;;;;;;;5.38;3.20;;;28.90;57.10;;;;;;5039299;28;20440;-72
2021/06/05 08:38:38;;;;;;;4.13;3.13;;;29.00;57.40;;;;;;5039634;28;20045;-73
2021/06/05 08:41:13;;;;;;;4.00;2.60;;;28.60;57.40;;;;;;5039581;28;20322;-73
2021/06/05 08:44:02;;;;;;;5.82;3.22;;;28.90;57.70;;;;;;5039272;28;20025;-73
2021/06/05 08:46:33;;;;;;;4.70;3.80;;;29.20;59.20;;;;;;5039453;28;20369;-73
2021/06/05 08:49:14;;;;;;;4.88;3.45;;;29.00;54.80;;;;;;5039403;28;20109;-73
2021/06/05 08:52:05;;;;;;;5.25;3.08;;;29.10;58.20;;;;;;5039423;28;20311;-73
2021/06/05 08:54:31;;;;;;;5.30;3.10;;;29.20;56.50;;;;;;5039437;28;20021;-73
2021/06/05 08:57:11;;;;;;;4.38;3.17;;;29.40;55.60;;;;;;5038958;28;20036;-73
2021/06/05 08:59:40;;;;;;;3.60;2.80;;;29.30;55.90;;;;;;5039191;28;20084;-73
2021/06/05 09:02:07;;;;;;;4.05;2.65;;;29.20;55.90;;;;;;5038688;28;20057;-72
2021/06/05 09:04:33;;;;;;;6.30;2.75;;;29.10;55.50;;;;;;5039089;28;20385;-72
2021/06/05 09:07:05;;;;;;;3.95;3.40;;;29.10;58.70;;;;;;5038790;28;20022;-73
2021/06/05 09:09:47;;;;;;;6.05;3.35;;;29.50;56.90;;;;;;5038755;28;20033;-73
2021/06/05 09:12:14;;;;;;;8.93;4.07;;;29.70;55.80;;;;;;5039031;28;20025;-73
2021/06/05 09:14:41;;;;;;;6.20;3.72;;;29.90;55.40;;;;;;5038960;28;20059;-74
2021/06/05 09:17:19;;;;;;;8.20;4.38;;;30.00;55.40;;;;;;5038614;28;20028;-73
2021/06/05 09:20:25;;;;;;;7.50;4.43;;;30.00;54.70;;;;;;5038553;28;20115;-73
2021/06/05 09:22:52;;;;;;;6.43;4.47;;;29.70;56.60;;;;;;5027779;28;20049;-73
2021/06/05 09:25:26;;;;;;;8.93;4.40;;;29.40;56.00;;;;;;5038411;28;20491;-74
2021/06/05 09:27:53;;;;;;;4.78;3.97;;;29.50;56.50;;;;;;5038767;28;20413;-74
2021/06/05 09:30:31;;;;;;;6.53;3.78;;;29.70;57.40;;;;;;5038303;28;20029;-74
2021/06/05 09:33:27;;;;;;;8.57;3.80;;;29.90;56.00;;;;;;5038602;28;20033;-73
2021/06/05 09:36:17;;;;;;;4.72;3.42;;;30.00;60.40;;;;;;5038191;28;20041;-73
2021/06/05 09:38:47;;;;;;;4.75;3.67;;;30.00;54.50;;;;;;5038530;28;20026;-73
2021/06/05 09:41:23;;;;;;;7.20;3.78;;;30.10;56.40;;;;;;5038454;28;20031;-73
2021/06/05 09:43:52;;;;;;;7.97;3.80;;;30.30;56.10;;;;;;5038386;28;20018;-73
2021/06/05 09:46:32;;;;;;;4.47;3.00;;;30.50;55.10;;;;;;5037962;28;20038;-73
2021/06/05 09:49:18;;;;;;;4.32;3.40;;;30.70;57.30;;;;;;5038053;28;20176;-72
2021/06/05 09:52:15;;;;;;;5.38;2.80;;;30.90;55.40;;;;;;5037947;28;20425;-73
2021/06/05 09:54:44;;;;;;;4.47;3.42;;;30.70;57.70;;;;;;5033136;28;20025;-73
2021/06/05 09:57:26;;;;;;;3.75;3.38;;;30.80;59.90;;;;;;5037788;28;20322;-73
2021/06/05 10:00:07;;;;;;;4.80;4.30;;;31.10;55.20;;;;;;5038145;28;20104;-73
2021/06/05 10:02:34;;;;;;;4.65;3.40;;;31.20;58.20;;;;;;5037718;28;20117;-73
2021/06/05 10:05:48;;;;;;;6.18;4.60;;;30.80;58.60;;;;;;5037625;28;20021;-73
2021/06/05 10:08:22;;;;;;;6.53;4.13;;;30.50;56.80;;;;;;5033177;28;20030;-73
2021/06/05 10:10:51;;;;;;;5.27;3.97;;;30.50;59.10;;;;;;5037870;28;20037;-73
2021/06/05 10:13:24;;;;;;;5.55;4.68;;;30.60;58.40;;;;;;5037469;28;20025;-73
2021/06/05 10:15:59;;;;;;;8.93;5.70;;;30.90;58.20;;;;;;5036028;28;20025;-73
2021/06/05 10:18:31;;;;;;;;;;;30.70;55.50;;;;;;5028972;28;20030;-73
2021/06/05 10:21:21;;;;;;;5.50;4.88;;;30.30;58.50;;;;;;5017738;28;19909;-73
2021/06/05 10:23:54;;;;;;;5.80;4.57;;;30.10;57.10;;;;;;5017597;28;20440;-73
2021/06/05 10:26:29;;;;;;;7.40;4.70;;;29.40;60.70;;;;;;5017526;28;20030;-73
2021/06/05 10:29:03;;;;;;;7.28;5.32;;;29.70;64.20;;;;;;5017903;28;20053;-73
2021/06/05 10:31:30;;;;;;;;;;;29.80;57.80;;;;;;5018251;28;20105;-73
2021/06/05 10:34:11;;;;;;;8.43;6.30;;;30.00;60.10;;;;;;5017449;28;19906;-73
2021/06/05 10:36:46;;;;;;;9.48;5.70;;;30.10;58.00;;;;;;5017343;28;20022;-73
2021/06/05 10:39:29;;;;;;;6.18;5.50;;;29.90;58.60;;;;;;5017329;28;20022;-72
2021/06/05 10:42:02;;;;;;;8.93;5.68;;;30.00;59.10;;;;;;5017577;28;20030;-73
2021/06/05 10:44:28;;;;;;;6.60;5.13;;;30.20;57.00;;;;;;5017326;28;20040;-73
2021/06/05 10:47:08;;;;;;;8.43;4.50;;;30.20;59.80;;;;;;5017532;28;20108;-73
2021/06/05 10:49:42;;;;;;;9.90;5.90;;;30.50;60.40;;;;;;5017088;28;20030;-73
2021/06/05 10:52:11;;;;;;;6.55;5.38;;;30.60;54.30;;;;;;5017390;28;20084;-73
2021/06/05 10:54:49;;;;;;;6.30;5.28;;;30.40;55.90;;;;;;5018196;28;20088;-73
2021/06/05 10:57:23;;;;;;;6.57;5.22;;;29.90;55.50;;;;;;5017137;28;20121;-73
2021/06/05 10:59:56;;;;;;;8.75;4.60;;;29.80;58.80;;;;;;5017056;28;20403;-73
2021/06/05 11:02:52;;;;;;;6.85;4.32;;;29.90;59.80;;;;;;5017053;28;20061;-73
2021/06/05 11:05:18;;;;;;;6.20;4.68;;;29.90;61.50;;;;;;5016942;28;20093;-73
2021/06/05 11:07:47;;;;;;;9.50;6.22;;;30.10;59.30;;;;;;5016914;28;20057;-73
2021/06/05 11:10:51;;;;;;;7.38;4.70;;;30.30;52.80;;;;;;5016864;28;20029;-73
2021/06/05 11:13:37;;;;;;;4.88;4.20;;;30.10;59.50;;;;;;5017200;28;20108;-73
2021/06/05 11:16:10;;;;;;;6.18;3.60;;;30.10;62.20;;;;;;5017292;28;20410;-73
2021/06/05 11:19:09;;;;;;;7.47;4.28;;;30.20;62.40;;;;;;5016858;28;20037;-73
2021/06/05 11:21:43;;;;;;;5.75;3.25;;;30.30;56.80;;;;;;5016613;28;20048;-73
2021/06/05 11:24:15;;;;;;;7.47;4.05;;;30.30;58.90;;;;;;5016821;28;20153;-73
2021/06/05 11:26:52;;;;;;;4.75;3.63;;;30.50;56.30;;;;;;5018298;28;20071;-73
2021/06/05 11:29:21;;;;;;;9.15;3.55;;;30.40;58.50;;;;;;5020799;28;20030;-73
2021/06/05 11:31:56;;;;;;;5.45;4.88;;;30.00;57.70;;;;;;5021035;28;20059;-73
2021/06/05 11:34:36;;;;;;;6.38;4.18;;;29.80;52.60;;;;;;5021118;28;20030;-73
2021/06/05 11:37:26;;;;;;;7.30;4.15;;;29.60;55.30;;;;;;5021010;28;20101;-73
2021/06/05 11:39:58;;;;;;;7.25;3.67;;;29.40;57.50;;;;;;5020530;28;20057;-73
2021/06/05 11:42:24;;;;;;;4.18;3.78;;;29.10;58.00;;;;;;5020388;28;20062;-74
2021/06/05 11:44:59;;;;;;;5.85;3.50;;;29.10;60.60;;;;;;5020898;28;20065;-73
2021/06/05 11:47:26;;;;;;;5.50;3.65;;;29.00;60.70;;;;;;5020520;28;20045;-73
2021/06/05 11:50:07;;;;;;;5.95;3.53;;;28.90;58.30;;;;;;5020377;28;20034;-73
2021/06/05 11:52:49;;;;;;;5.43;3.80;;;29.00;58.60;;;;;;5020719;28;20371;-73
2021/06/05 11:55:38;;;;;;;8.25;3.78;;;28.60;56.80;;;;;;5020549;28;20038;-73
2021/06/05 11:58:19;;;;;;;4.90;4.20;;;28.40;61.50;;;;;;5020340;28;20018;-73
2021/06/05 12:00:48;;;;;;;8.00;4.93;;;28.40;59.70;;;;;;5020239;28;20048;-74
2021/06/05 12:03:35;;;;;;;5.72;3.90;;;28.40;56.60;;;;;;5020248;28;20076;-74
2021/06/05 12:06:14;;;;;;;4.90;3.85;;;28.30;60.80;;;;;;5020160;28;20032;-74
2021/06/05 12:08:40;;;;;;;5.65;4.60;;;28.30;62.10;;;;;;5020056;28;20053;-74
2021/06/05 12:11:40;;;;;;;5.70;4.28;;;28.30;56.80;;;;;;5020002;28;20030;-74
2021/06/05 12:14:17;;;;;;;7.55;4.70;;;28.10;57.80;;;;;;5020440;28;20030;-74
2021/06/05 12:16:53;;;;;;;6.75;3.78;;;28.00;57.90;;;;;;5020193;28;20034;-74
2021/06/05 12:19:26;;;;;;;10.32;5.50;;;27.90;60.90;;;;;;5019934;28;20026;-73
2021/06/05 12:21:52;;;;;;;7.07;4.57;;;27.40;57.00;;;;;;5019912;28;20125;-73
2021/06/05 12:24:23;;;;;;;5.10;3.55;;;27.20;62.40;;;;;;5019831;28;20050;-73
2021/06/05 12:27:04;;;;;;;4.47;4.07;;;27.30;64.10;;;;;;5020004;28;20030;-73
2021/06/05 12:29:34;;;;;;;6.00;4.28;;;27.30;64.40;;;;;;5019995;28;20105;-73
2021/06/05 12:32:13;;;;;;;5.53;3.78;;;27.30;61.00;;;;;;5019681;28;20037;-74
2021/06/05 12:34:40;;;;;;;4.47;3.60;;;27.40;60.30;;;;;;5019891;28;20014;-74
2021/06/05 12:37:14;;;;;;;5.80;3.95;;;27.60;64.30;;;;;;5019354;28;20072;-73
2021/06/05 12:39:51;;;;;;;8.32;3.30;;;27.70;58.50;;;;;;5019574;28;20152;-73
2021/06/05 12:42:22;;;;;;;4.80;3.80;;;27.90;61.10;;;;;;5019820;28;20033;-73
2021/06/05 12:44:50;;;;;;;5.80;3.28;;;27.90;58.90;;;;;;5019576;28;20124;-74
2021/06/05 12:47:33;;;;;;;8.20;4.35;;;27.70;63.00;;;;;;5019387;28;20485;-74
2021/06/05 12:49:59;;;;;;;8.68;4.85;;;27.70;60.50;;;;;;5019611;28;20045;-74
2021/06/05 12:52:28;;;;;;;5.50;3.90;;;27.60;63.20;;;;;;5019614;28;20109;-74
2021/06/05 12:55:19;;;;;;;9.88;4.30;;;27.50;58.60;;;;;;5019256;28;20056;-73
2021/06/05 12:57:52;;;;;;;5.30;4.78;;;27.50;58.20;;;;;;5019529;28;20032;-73
2021/06/05 13:00:38;;;;;;;6.40;4.35;;;27.40;57.50;;;;;;5019161;28;20104;-73
2021/06/05 13:03:22;;;;;;;5.93;4.38;;;27.30;57.90;;;;;;5019169;28;20032;-73
2021/06/05 13:06:02;;;;;;;5.50;4.65;;;27.30;63.50;;;;;;5019061;28;20041;-74
2021/06/05 13:08:32;;;;;;;8.68;3.92;;;27.20;59.00;;;;;;5019282;28;20033;-73